sensor_id;sensor_type;location;lat;lon;timestamp;pressure;altitude;pressure_sealevel;temperature;humidity
14269;BME280;7218;51.480;7.006;2023-07-20T00:01:18;99838.59;;;14.76;95.76
14269;BME280;7218;51.480;7.006;2023-07-20T00:03:45;99844.44;;;14.62;96.77
14269;BME280;7218;51.480;7.006;2023-07-20T00:06:19;99833.69;;;14.69;97.30
14269;BME280;7218;51.480;7.006;2023-07-20T00:08:46;99834.56;;;14.69;97.74
14269;BME280;7218;51.480;7.006;2023-07-20T00:11:13;99845.88;;;14.70;98.46
14269;BME280;7218;51.480;7.006;2023-07-20T00:13:39;99839.06;;;14.65;98.79
14269;BME280;7218;51.480;7.006;2023-07-20T00:16:07;99834.59;;;14.47;99.58
14269;BME280;7218;51.480;7.006;2023-07-20T00:18:34;99834.41;;;14.52;100.00
14269;BME280;7218;51.480;7.006;2023-07-20T00:21:01;99833.34;;;14.56;99.44
14269;BME280;7218;51.480;7.006;2023-07-20T00:23:28;99830.16;;;14.49;100.00
14269;BME280;7218;51.480;7.006;2023-07-20T00:25:54;99821.97;;;14.35;100.00
14269;BME280;7218;51.480;7.006;2023-07-20T00:28:21;99826.31;;;14.36;100.00
14269;BME280;7218;51.480;7.006;2023-07-20T00:30:47;99820.34;;;14.33;100.00
14269;BME280;7218;51.480;7.006;2023-07-20T00:33:17;99824.31;;;14.43;100.00
14269;BME280;7218;51.480;7.006;2023-07-20T00:35:44;99815.72;;;14.39;100.00
14269;BME280;7218;51.480;7.006;2023-07-20T00:38:10;99813.88;;;14.41;100.00
14269;BME280;7218;51.480;7.006;2023-07-20T00:40:37;99805.75;;;14.47;100.00
14269;BME280;7218;51.480;7.006;2023-07-20T00:43:04;99823.06;;;14.30;100.00
14269;BME280;7218;51.480;7.006;2023-07-20T00:45:31;99817.97;;;14.27;100.00
14269;BME280;7218;51.480;7.006;2023-07-20T00:47:59;99812.28;;;14.37;100.00
14269;BME280;7218;51.480;7.006;2023-07-20T00:50:29;99814.53;;;14.46;100.00
14269;BME280;7218;51.480;7.006;2023-07-20T00:52:56;99817.41;;;14.40;100.00
14269;BME280;7218;51.480;7.006;2023-07-20T00:55:24;99812.03;;;14.43;100.00
14269;BME280;7218;51.480;7.006;2023-07-20T00:57:50;99814.72;;;14.42;100.00
14269;BME280;7218;51.480;7.006;2023-07-20T01:00:17;99804.59;;;14.33;100.00
14269;BME280;7218;51.480;7.006;2023-07-20T01:02:44;99811.44;;;14.37;100.00
14269;BME280;7218;51.480;7.006;2023-07-20T01:05:11;99817.53;;;14.37;100.00
14269;BME280;7218;51.480;7.006;2023-07-20T01:07:42;99816.25;;;14.47;100.00
14269;BME280;7218;51.480;7.006;2023-07-20T01:10:18;99814.31;;;14.51;100.00
14269;BME280;7218;51.480;7.006;2023-07-20T01:12:47;99816.91;;;14.31;100.00
14269;BME280;7218;51.480;7.006;2023-07-20T01:15:14;99808.31;;;14.27;100.00
14269;BME280;7218;51.480;7.006;2023-07-20T01:17:40;99810.16;;;14.25;100.00
14269;BME280;7218;51.480;7.006;2023-07-20T01:20:09;99806.75;;;14.23;100.00
14269;BME280;7218;51.480;7.006;2023-07-20T01:23:01;99797.22;;;14.20;100.00
14269;BME280;7218;51.480;7.006;2023-07-20T01:28:48;99817.81;;;14.09;100.00
14269;BME280;7218;51.480;7.006;2023-07-20T01:31:24;99818.44;;;13.94;100.00
14269;BME280;7218;51.480;7.006;2023-07-20T01:33:54;99820.44;;;13.88;100.00
14269;BME280;7218;51.480;7.006;2023-07-20T01:36:24;99815.88;;;13.93;100.00
14269;BME280;7218;51.480;7.006;2023-07-20T01:38:52;99804.41;;;13.95;100.00
14269;BME280;7218;51.480;7.006;2023-07-20T01:41:20;99803.19;;;14.04;100.00
14269;BME280;7218;51.480;7.006;2023-07-20T01:43:47;99804.19;;;14.00;100.00
14269;BME280;7218;51.480;7.006;2023-07-20T01:46:13;99805.63;;;13.87;100.00
14269;BME280;7218;51.480;7.006;2023-07-20T01:48:42;99810.84;;;13.65;100.00
14269;BME280;7218;51.480;7.006;2023-07-20T01:51:08;99809.19;;;13.64;100.00
14269;BME280;7218;51.480;7.006;2023-07-20T01:53:35;99802.47;;;13.78;100.00
14269;BME280;7218;51.480;7.006;2023-07-20T01:56:02;99804.41;;;13.52;100.00
14269;BME280;7218;51.480;7.006;2023-07-20T01:58:28;99794.84;;;13.51;100.00
14269;BME280;7218;51.480;7.006;2023-07-20T02:00:54;99798.34;;;13.28;100.00
14269;BME280;7218;51.480;7.006;2023-07-20T02:03:21;99802.28;;;13.16;100.00
14269;BME280;7218;51.480;7.006;2023-07-20T02:05:50;99801.41;;;13.16;100.00
14269;BME280;7218;51.480;7.006;2023-07-20T02:08:16;99798.00;;;13.37;100.00
14269;BME280;7218;51.480;7.006;2023-07-20T02:10:45;99808.09;;;13.24;100.00
14269;BME280;7218;51.480;7.006;2023-07-20T02:13:11;99803.91;;;13.42;100.00
14269;BME280;7218;51.480;7.006;2023-07-20T02:15:38;99795.69;;;13.51;100.00
14269;BME280;7218;51.480;7.006;2023-07-20T02:18:05;99797.28;;;13.33;100.00
14269;BME280;7218;51.480;7.006;2023-07-20T02:20:32;99808.28;;;13.20;100.00
14269;BME280;7218;51.480;7.006;2023-07-20T02:23:00;99809.34;;;13.14;100.00
14269;BME280;7218;51.480;7.006;2023-07-20T02:25:26;99811.63;;;13.23;100.00
14269;BME280;7218;51.480;7.006;2023-07-20T02:27:53;99817.44;;;13.30;100.00
14269;BME280;7218;51.480;7.006;2023-07-20T02:30:19;99815.94;;;13.24;100.00
14269;BME280;7218;51.480;7.006;2023-07-20T02:32:46;99811.03;;;13.15;100.00
14269;BME280;7218;51.480;7.006;2023-07-20T02:35:13;99806.44;;;12.97;100.00
14269;BME280;7218;51.480;7.006;2023-07-20T02:37:40;99813.91;;;13.08;100.00
14269;BME280;7218;51.480;7.006;2023-07-20T02:40:09;99810.91;;;12.95;100.00
14269;BME280;7218;51.480;7.006;2023-07-20T02:42:36;99817.91;;;12.94;100.00
14269;BME280;7218;51.480;7.006;2023-07-20T02:45:03;99817.59;;;13.02;100.00
14269;BME280;7218;51.480;7.006;2023-07-20T02:47:30;99819.75;;;13.16;100.00
14269;BME280;7218;51.480;7.006;2023-07-20T02:49:57;99821.47;;;13.17;100.00
14269;BME280;7218;51.480;7.006;2023-07-20T02:52:23;99821.31;;;12.97;100.00
14269;BME280;7218;51.480;7.006;2023-07-20T02:54:50;99824.72;;;12.99;100.00
14269;BME280;7218;51.480;7.006;2023-07-20T02:57:18;99826.09;;;13.09;100.00
14269;BME280;7218;51.480;7.006;2023-07-20T02:59:44;99815.22;;;12.96;100.00
14269;BME280;7218;51.480;7.006;2023-07-20T03:02:11;99821.38;;;12.70;100.00
14269;BME280;7218;51.480;7.006;2023-07-20T03:04:37;99824.53;;;12.80;100.00
14269;BME280;7218;51.480;7.006;2023-07-20T03:07:04;99822.88;;;12.77;100.00
14269;BME280;7218;51.480;7.006;2023-07-20T03:09:32;99820.38;;;12.74;100.00
14269;BME280;7218;51.480;7.006;2023-07-20T03:11:58;99815.25;;;12.71;100.00
14269;BME280;7218;51.480;7.006;2023-07-20T03:14:27;99828.47;;;12.91;100.00
14269;BME280;7218;51.480;7.006;2023-07-20T03:16:54;99821.25;;;12.75;100.00
14269;BME280;7218;51.480;7.006;2023-07-20T03:19:20;99829.66;;;12.83;100.00
14269;BME280;7218;51.480;7.006;2023-07-20T03:21:47;99830.84;;;12.74;100.00
14269;BME280;7218;51.480;7.006;2023-07-20T03:24:13;99836.16;;;12.71;100.00
14269;BME280;7218;51.480;7.006;2023-07-20T03:26:40;99837.22;;;12.66;100.00
14269;BME280;7218;51.480;7.006;2023-07-20T03:29:06;99834.31;;;12.75;100.00
14269;BME280;7218;51.480;7.006;2023-07-20T03:31:35;99832.66;;;12.72;100.00
14269;BME280;7218;51.480;7.006;2023-07-20T03:34:01;99831.75;;;12.73;100.00
14269;BME280;7218;51.480;7.006;2023-07-20T03:36:28;99839.47;;;12.76;100.00
14269;BME280;7218;51.480;7.006;2023-07-20T03:38:54;99840.13;;;12.83;100.00
14269;BME280;7218;51.480;7.006;2023-07-20T03:41:20;99839.91;;;12.89;100.00
14269;BME280;7218;51.480;7.006;2023-07-20T03:43:47;99842.97;;;13.00;100.00
14269;BME280;7218;51.480;7.006;2023-07-20T03:46:14;99842.03;;;13.03;100.00
14269;BME280;7218;51.480;7.006;2023-07-20T03:48:42;99846.13;;;13.10;100.00
14269;BME280;7218;51.480;7.006;2023-07-20T03:51:08;99850.50;;;13.09;100.00
14269;BME280;7218;51.480;7.006;2023-07-20T03:53:34;99846.09;;;13.11;100.00
14269;BME280;7218;51.480;7.006;2023-07-20T03:56:01;99843.63;;;13.07;100.00
14269;BME280;7218;51.480;7.006;2023-07-20T03:58:28;99852.53;;;13.01;100.00
14269;BME280;7218;51.480;7.006;2023-07-20T04:00:55;99853.19;;;13.08;100.00
14269;BME280;7218;51.480;7.006;2023-07-20T04:03:21;99856.00;;;13.02;100.00
14269;BME280;7218;51.480;7.006;2023-07-20T04:05:53;99849.56;;;13.12;100.00
14269;BME280;7218;51.480;7.006;2023-07-20T04:08:19;99855.53;;;13.15;100.00
14269;BME280;7218;51.480;7.006;2023-07-20T04:10:46;99856.34;;;13.17;100.00
14269;BME280;7218;51.480;7.006;2023-07-20T04:13:12;99851.41;;;13.08;100.00
14269;BME280;7218;51.480;7.006;2023-07-20T04:15:39;99858.91;;;13.19;100.00
14269;BME280;7218;51.480;7.006;2023-07-20T04:18:05;99859.69;;;13.21;100.00
14269;BME280;7218;51.480;7.006;2023-07-20T04:20:32;99864.59;;;13.30;100.00
14269;BME280;7218;51.480;7.006;2023-07-20T04:22:59;99863.59;;;13.34;100.00
14269;BME280;7218;51.480;7.006;2023-07-20T04:25:26;99861.94;;;13.31;100.00
14269;BME280;7218;51.480;7.006;2023-07-20T04:27:52;99858.69;;;13.25;100.00
14269;BME280;7218;51.480;7.006;2023-07-20T04:30:20;99855.09;;;13.27;100.00
14269;BME280;7218;51.480;7.006;2023-07-20T04:32:47;99858.75;;;12.99;100.00
14269;BME280;7218;51.480;7.006;2023-07-20T04:35:17;99865.28;;;13.12;100.00
14269;BME280;7218;51.480;7.006;2023-07-20T04:37:44;99859.13;;;13.13;100.00
14269;BME280;7218;51.480;7.006;2023-07-20T04:40:15;99861.38;;;13.23;100.00
14269;BME280;7218;51.480;7.006;2023-07-20T04:42:42;99868.31;;;13.24;100.00
14269;BME280;7218;51.480;7.006;2023-07-20T04:45:09;99869.00;;;13.29;100.00
14269;BME280;7218;51.480;7.006;2023-07-20T04:47:35;99866.59;;;13.23;100.00
14269;BME280;7218;51.480;7.006;2023-07-20T04:50:02;99869.94;;;13.27;100.00
14269;BME280;7218;51.480;7.006;2023-07-20T04:52:29;99874.72;;;13.16;100.00
14269;BME280;7218;51.480;7.006;2023-07-20T04:54:55;99873.56;;;13.24;100.00
14269;BME280;7218;51.480;7.006;2023-07-20T04:57:24;99881.13;;;13.32;100.00
14269;BME280;7218;51.480;7.006;2023-07-20T04:59:51;99880.47;;;13.25;100.00
14269;BME280;7218;51.480;7.006;2023-07-20T05:02:18;99883.78;;;13.30;100.00
14269;BME280;7218;51.480;7.006;2023-07-20T05:04:44;99883.47;;;13.40;100.00
14269;BME280;7218;51.480;7.006;2023-07-20T05:07:11;99885.78;;;13.47;100.00
14269;BME280;7218;51.480;7.006;2023-07-20T05:09:37;99884.19;;;13.43;100.00
14269;BME280;7218;51.480;7.006;2023-07-20T05:12:04;99890.50;;;13.38;100.00
14269;BME280;7218;51.480;7.006;2023-07-20T05:14:32;99892.78;;;13.47;100.00
14269;BME280;7218;51.480;7.006;2023-07-20T05:16:59;99890.69;;;13.33;100.00
14269;BME280;7218;51.480;7.006;2023-07-20T05:19:25;99897.50;;;13.37;100.00
14269;BME280;7218;51.480;7.006;2023-07-20T05:21:52;99895.78;;;13.36;100.00
14269;BME280;7218;51.480;7.006;2023-07-20T05:24:18;99894.03;;;13.36;100.00
14269;BME280;7218;51.480;7.006;2023-07-20T05:26:45;99893.88;;;13.41;100.00
14269;BME280;7218;51.480;7.006;2023-07-20T05:29:11;99901.56;;;13.46;100.00
14269;BME280;7218;51.480;7.006;2023-07-20T05:31:39;99899.56;;;13.52;100.00
14269;BME280;7218;51.480;7.006;2023-07-20T05:34:05;99897.16;;;13.46;100.00
14269;BME280;7218;51.480;7.006;2023-07-20T05:36:32;99901.63;;;13.44;100.00
14269;BME280;7218;51.480;7.006;2023-07-20T05:38:58;99899.78;;;13.46;100.00
14269;BME280;7218;51.480;7.006;2023-07-20T05:41:25;99898.72;;;13.52;100.00
14269;BME280;7218;51.480;7.006;2023-07-20T05:43:51;99906.88;;;13.44;100.00
14269;BME280;7218;51.480;7.006;2023-07-20T05:46:18;99904.69;;;13.55;100.00
14269;BME280;7218;51.480;7.006;2023-07-20T05:48:45;99918.81;;;13.51;100.00
14269;BME280;7218;51.480;7.006;2023-07-20T05:51:12;99912.72;;;13.51;100.00
14269;BME280;7218;51.480;7.006;2023-07-20T05:53:39;99915.50;;;13.46;100.00
14269;BME280;7218;51.480;7.006;2023-07-20T05:56:05;99922.09;;;13.56;100.00
14269;BME280;7218;51.480;7.006;2023-07-20T05:58:35;99920.31;;;13.58;100.00
14269;BME280;7218;51.480;7.006;2023-07-20T06:01:03;99916.19;;;13.74;100.00
14269;BME280;7218;51.480;7.006;2023-07-20T06:03:30;99918.16;;;13.91;100.00
14269;BME280;7218;51.480;7.006;2023-07-20T06:06:00;99921.66;;;14.13;100.00
14269;BME280;7218;51.480;7.006;2023-07-20T06:08:27;99921.72;;;14.12;100.00
14269;BME280;7218;51.480;7.006;2023-07-20T06:10:53;99925.72;;;14.20;100.00
14269;BME280;7218;51.480;7.006;2023-07-20T06:13:20;99933.88;;;14.35;100.00
14269;BME280;7218;51.480;7.006;2023-07-20T06:15:46;99939.31;;;14.30;100.00
14269;BME280;7218;51.480;7.006;2023-07-20T06:18:13;99936.13;;;14.45;100.00
14269;BME280;7218;51.480;7.006;2023-07-20T06:20:40;99940.50;;;14.45;100.00
14269;BME280;7218;51.480;7.006;2023-07-20T06:23:08;99947.38;;;14.49;100.00
14269;BME280;7218;51.480;7.006;2023-07-20T06:25:34;99944.78;;;14.47;100.00
14269;BME280;7218;51.480;7.006;2023-07-20T06:28:01;99941.19;;;14.28;100.00
14269;BME280;7218;51.480;7.006;2023-07-20T06:30:29;99939.22;;;14.11;100.00
14269;BME280;7218;51.480;7.006;2023-07-20T06:32:55;99946.34;;;14.08;100.00
14269;BME280;7218;51.480;7.006;2023-07-20T06:35:22;99939.03;;;14.16;100.00
14269;BME280;7218;51.480;7.006;2023-07-20T06:37:49;99947.03;;;14.13;100.00
14269;BME280;7218;51.480;7.006;2023-07-20T06:40:16;99941.34;;;14.02;100.00
14269;BME280;7218;51.480;7.006;2023-07-20T06:42:43;99941.41;;;13.77;100.00
14269;BME280;7218;51.480;7.006;2023-07-20T06:45:10;99952.28;;;13.66;100.00
14269;BME280;7218;51.480;7.006;2023-07-20T06:47:37;99946.28;;;13.64;100.00
14269;BME280;7218;51.480;7.006;2023-07-20T06:50:05;99943.28;;;13.50;100.00
14269;BME280;7218;51.480;7.006;2023-07-20T06:52:32;99944.53;;;13.40;100.00
14269;BME280;7218;51.480;7.006;2023-07-20T06:54:58;99943.00;;;13.34;100.00
14269;BME280;7218;51.480;7.006;2023-07-20T06:57:26;99947.56;;;13.29;100.00
14269;BME280;7218;51.480;7.006;2023-07-20T06:59:53;99952.09;;;13.24;100.00
14269;BME280;7218;51.480;7.006;2023-07-20T07:02:19;99953.00;;;13.23;100.00
14269;BME280;7218;51.480;7.006;2023-07-20T07:04:46;99948.84;;;13.18;100.00
14269;BME280;7218;51.480;7.006;2023-07-20T07:07:13;99953.78;;;13.25;100.00
14269;BME280;7218;51.480;7.006;2023-07-20T07:09:40;99958.41;;;13.19;100.00
14269;BME280;7218;51.480;7.006;2023-07-20T07:12:07;99960.81;;;13.25;100.00
14269;BME280;7218;51.480;7.006;2023-07-20T07:14:35;99960.75;;;13.26;100.00
14269;BME280;7218;51.480;7.006;2023-07-20T07:17:02;99963.16;;;13.06;100.00
14269;BME280;7218;51.480;7.006;2023-07-20T07:19:29;99966.31;;;13.17;100.00
14269;BME280;7218;51.480;7.006;2023-07-20T07:21:55;99966.06;;;13.25;100.00
14269;BME280;7218;51.480;7.006;2023-07-20T07:24:22;99965.41;;;13.43;100.00
14269;BME280;7218;51.480;7.006;2023-07-20T07:26:48;99961.31;;;13.59;100.00
14269;BME280;7218;51.480;7.006;2023-07-20T07:29:15;99967.34;;;13.61;100.00
14269;BME280;7218;51.480;7.006;2023-07-20T07:31:43;99966.59;;;14.04;100.00
14269;BME280;7218;51.480;7.006;2023-07-20T07:34:09;99963.63;;;13.90;100.00
14269;BME280;7218;51.480;7.006;2023-07-20T07:36:36;99972.06;;;14.43;100.00
14269;BME280;7218;51.480;7.006;2023-07-20T07:39:02;99965.84;;;14.88;100.00
14269;BME280;7218;51.480;7.006;2023-07-20T07:41:29;99962.91;;;15.16;100.00
14269;BME280;7218;51.480;7.006;2023-07-20T07:43:55;99963.09;;;15.52;100.00
14269;BME280;7218;51.480;7.006;2023-07-20T07:46:22;99966.38;;;15.57;95.98
14269;BME280;7218;51.480;7.006;2023-07-20T07:48:49;99974.91;;;15.62;96.49
14269;BME280;7218;51.480;7.006;2023-07-20T07:51:16;99967.53;;;15.49;94.30
14269;BME280;7218;51.480;7.006;2023-07-20T07:53:42;99975.19;;;15.15;97.45
14269;BME280;7218;51.480;7.006;2023-07-20T07:56:09;99991.97;;;14.91;98.80
14269;BME280;7218;51.480;7.006;2023-07-20T07:58:36;99979.19;;;15.03;98.51
14269;BME280;7218;51.480;7.006;2023-07-20T08:01:02;99984.38;;;15.25;98.74
14269;BME280;7218;51.480;7.006;2023-07-20T08:03:29;99987.00;;;15.25;98.12
14269;BME280;7218;51.480;7.006;2023-07-20T08:05:57;99997.00;;;15.17;98.05
14269;BME280;7218;51.480;7.006;2023-07-20T08:08:24;99992.25;;;15.25;97.61
14269;BME280;7218;51.480;7.006;2023-07-20T08:10:53;100001.38;;;15.37;99.60
14269;BME280;7218;51.480;7.006;2023-07-20T08:13:20;99996.28;;;15.34;97.75
14269;BME280;7218;51.480;7.006;2023-07-20T08:15:49;99998.97;;;15.32;99.01
14269;BME280;7218;51.480;7.006;2023-07-20T08:18:16;100003.81;;;15.01;98.97
14269;BME280;7218;51.480;7.006;2023-07-20T08:20:44;100003.09;;;14.97;96.45
14269;BME280;7218;51.480;7.006;2023-07-20T08:23:12;100001.19;;;15.01;96.80
14269;BME280;7218;51.480;7.006;2023-07-20T08:25:38;99998.25;;;15.08;96.84
14269;BME280;7218;51.480;7.006;2023-07-20T08:28:09;100009.06;;;15.01;98.84
14269;BME280;7218;51.480;7.006;2023-07-20T08:30:40;100000.66;;;14.93;98.10
14269;BME280;7218;51.480;7.006;2023-07-20T08:33:07;100010.78;;;14.80;98.17
14269;BME280;7218;51.480;7.006;2023-07-20T08:35:33;100008.31;;;14.77;98.78
14269;BME280;7218;51.480;7.006;2023-07-20T08:38:00;100005.81;;;14.74;99.04
14269;BME280;7218;51.480;7.006;2023-07-20T08:40:28;99997.59;;;14.82;98.87
14269;BME280;7218;51.480;7.006;2023-07-20T08:42:55;100002.63;;;14.66;97.82
14269;BME280;7218;51.480;7.006;2023-07-20T08:45:25;99995.91;;;14.81;98.08
14269;BME280;7218;51.480;7.006;2023-07-20T08:47:52;100002.56;;;15.09;96.23
14269;BME280;7218;51.480;7.006;2023-07-20T08:50:20;100004.63;;;15.43;94.13
14269;BME280;7218;51.480;7.006;2023-07-20T08:52:48;100005.88;;;15.55;93.06
14269;BME280;7218;51.480;7.006;2023-07-20T08:55:16;100006.78;;;15.93;91.30
14269;BME280;7218;51.480;7.006;2023-07-20T08:57:46;100006.94;;;16.09;89.07
14269;BME280;7218;51.480;7.006;2023-07-20T09:00:13;100007.63;;;16.31;86.23
14269;BME280;7218;51.480;7.006;2023-07-20T09:02:41;100009.03;;;16.57;83.96
14269;BME280;7218;51.480;7.006;2023-07-20T09:05:09;100011.19;;;16.85;82.77
14269;BME280;7218;51.480;7.006;2023-07-20T09:07:36;100015.09;;;16.95;81.29
14269;BME280;7218;51.480;7.006;2023-07-20T09:10:03;100011.78;;;17.43;79.29
14269;BME280;7218;51.480;7.006;2023-07-20T09:12:31;100002.44;;;17.70;74.73
14269;BME280;7218;51.480;7.006;2023-07-20T09:14:59;99993.16;;;17.79;75.36
14269;BME280;7218;51.480;7.006;2023-07-20T09:17:26;99998.69;;;17.74;72.22
14269;BME280;7218;51.480;7.006;2023-07-20T09:19:53;99995.25;;;17.89;70.63
14269;BME280;7218;51.480;7.006;2023-07-20T09:22:20;100001.72;;;17.99;67.53
14269;BME280;7218;51.480;7.006;2023-07-20T09:24:46;100002.84;;;17.62;69.32
14269;BME280;7218;51.480;7.006;2023-07-20T09:27:13;100001.31;;;17.74;71.05
14269;BME280;7218;51.480;7.006;2023-07-20T09:29:47;100010.31;;;17.87;67.62
14269;BME280;7218;51.480;7.006;2023-07-20T09:32:18;100000.88;;;17.99;66.03
14269;BME280;7218;51.480;7.006;2023-07-20T09:34:44;100008.91;;;18.29;66.29
14269;BME280;7218;51.480;7.006;2023-07-20T09:37:11;100002.34;;;18.52;64.89
14269;BME280;7218;51.480;7.006;2023-07-20T09:39:42;99994.19;;;18.72;63.55
14269;BME280;7218;51.480;7.006;2023-07-20T09:42:10;99997.72;;;19.16;63.25
14269;BME280;7218;51.480;7.006;2023-07-20T09:44:38;100000.69;;;19.40;62.73
14269;BME280;7218;51.480;7.006;2023-07-20T09:47:05;99999.75;;;19.27;61.75
14269;BME280;7218;51.480;7.006;2023-07-20T09:49:39;99990.44;;;19.78;59.63
14269;BME280;7218;51.480;7.006;2023-07-20T09:52:06;99991.28;;;20.21;57.10
14269;BME280;7218;51.480;7.006;2023-07-20T09:54:33;100000.63;;;20.41;57.18
14269;BME280;7218;51.480;7.006;2023-07-20T09:57:02;100000.38;;;19.89;53.09
14269;BME280;7218;51.480;7.006;2023-07-20T09:59:28;99990.72;;;19.15;57.03
14269;BME280;7218;51.480;7.006;2023-07-20T10:01:58;99986.00;;;19.93;52.64
14269;BME280;7218;51.480;7.006;2023-07-20T10:04:26;99996.31;;;20.11;56.37
14269;BME280;7218;51.480;7.006;2023-07-20T10:06:59;99987.06;;;19.76;59.08
14269;BME280;7218;51.480;7.006;2023-07-20T10:09:28;99991.84;;;19.41;61.63
14269;BME280;7218;51.480;7.006;2023-07-20T10:11:56;100001.44;;;18.98;62.18
14269;BME280;7218;51.480;7.006;2023-07-20T10:14:25;99996.72;;;19.33;65.13
14269;BME280;7218;51.480;7.006;2023-07-20T10:16:57;99996.59;;;19.78;60.64
14269;BME280;7218;51.480;7.006;2023-07-20T10:19:27;100001.22;;;19.61;58.58
14269;BME280;7218;51.480;7.006;2023-07-20T10:22:03;99998.66;;;20.16;60.19
14269;BME280;7218;51.480;7.006;2023-07-20T10:24:34;99993.38;;;19.73;54.96
14269;BME280;7218;51.480;7.006;2023-07-20T10:27:01;99994.03;;;19.19;57.21
14269;BME280;7218;51.480;7.006;2023-07-20T10:29:29;100004.72;;;19.61;55.11
14269;BME280;7218;51.480;7.006;2023-07-20T10:31:57;99997.81;;;20.15;53.60
14269;BME280;7218;51.480;7.006;2023-07-20T10:34:24;99989.78;;;19.89;50.33
14269;BME280;7218;51.480;7.006;2023-07-20T10:36:50;99990.25;;;20.09;55.42
14269;BME280;7218;51.480;7.006;2023-07-20T10:39:24;99988.69;;;20.75;52.44
14269;BME280;7218;51.480;7.006;2023-07-20T10:42:00;99989.13;;;20.54;50.47
14269;BME280;7218;51.480;7.006;2023-07-20T10:44:27;99981.28;;;20.80;48.70
14269;BME280;7218;51.480;7.006;2023-07-20T10:46:59;99972.72;;;21.79;49.02
14269;BME280;7218;51.480;7.006;2023-07-20T10:49:26;99975.69;;;21.49;47.00
14269;BME280;7218;51.480;7.006;2023-07-20T10:51:57;99972.72;;;21.92;46.92
14269;BME280;7218;51.480;7.006;2023-07-20T10:54:49;99968.06;;;21.95;45.08
14269;BME280;7218;51.480;7.006;2023-07-20T10:57:29;99978.22;;;21.38;47.79
14269;BME280;7218;51.480;7.006;2023-07-20T11:00:08;99982.91;;;20.55;48.50
14269;BME280;7218;51.480;7.006;2023-07-20T11:02:42;99974.25;;;20.66;49.92
14269;BME280;7218;51.480;7.006;2023-07-20T11:05:35;99970.81;;;20.51;47.80
14269;BME280;7218;51.480;7.006;2023-07-20T11:08:08;99963.66;;;21.05;48.66
14269;BME280;7218;51.480;7.006;2023-07-20T11:10:37;99954.88;;;21.94;49.21
14269;BME280;7218;51.480;7.006;2023-07-20T11:13:18;99958.16;;;22.33;45.36
14269;BME280;7218;51.480;7.006;2023-07-20T11:15:45;99957.53;;;21.81;46.40
14269;BME280;7218;51.480;7.006;2023-07-20T11:18:13;99955.84;;;22.29;46.70
14269;BME280;7218;51.480;7.006;2023-07-20T11:20:40;99953.41;;;22.26;46.20
14269;BME280;7218;51.480;7.006;2023-07-20T11:23:08;99951.66;;;21.88;46.10
14269;BME280;7218;51.480;7.006;2023-07-20T11:25:40;99951.06;;;21.60;49.75
14269;BME280;7218;51.480;7.006;2023-07-20T11:28:07;99944.16;;;21.95;49.17
14269;BME280;7218;51.480;7.006;2023-07-20T11:30:36;99945.66;;;22.94;48.92
14269;BME280;7218;51.480;7.006;2023-07-20T11:33:03;99945.34;;;23.56;46.00
14269;BME280;7218;51.480;7.006;2023-07-20T11:35:29;99944.31;;;22.89;42.59
14269;BME280;7218;51.480;7.006;2023-07-20T11:37:56;99944.38;;;22.28;45.08
14269;BME280;7218;51.480;7.006;2023-07-20T11:40:22;99950.81;;;21.88;45.66
14269;BME280;7218;51.480;7.006;2023-07-20T11:42:51;99945.53;;;21.37;43.88
14269;BME280;7218;51.480;7.006;2023-07-20T11:45:19;99950.34;;;20.80;43.59
14269;BME280;7218;51.480;7.006;2023-07-20T11:47:45;99954.56;;;20.29;45.56
14269;BME280;7218;51.480;7.006;2023-07-20T11:50:12;99949.63;;;19.96;46.64
14269;BME280;7218;51.480;7.006;2023-07-20T11:52:39;99942.06;;;20.97;45.94
14269;BME280;7218;51.480;7.006;2023-07-20T11:55:07;99939.97;;;22.64;46.97
14269;BME280;7218;51.480;7.006;2023-07-20T11:57:33;99933.97;;;23.54;39.94
14269;BME280;7218;51.480;7.006;2023-07-20T12:00:03;99933.66;;;24.67;42.89
14269;BME280;7218;51.480;7.006;2023-07-20T12:02:34;99933.41;;;25.02;37.31
14269;BME280;7218;51.480;7.006;2023-07-20T12:05:02;99931.63;;;25.33;39.10
14269;BME280;7218;51.480;7.006;2023-07-20T12:07:35;99928.75;;;25.66;35.39
14269;BME280;7218;51.480;7.006;2023-07-20T12:10:06;99926.34;;;25.42;33.50
14269;BME280;7218;51.480;7.006;2023-07-20T12:12:33;99927.19;;;23.61;35.90
14269;BME280;7218;51.480;7.006;2023-07-20T12:15:19;99931.00;;;23.35;36.63
14269;BME280;7218;51.480;7.006;2023-07-20T12:17:49;99926.75;;;23.32;37.43
14269;BME280;7218;51.480;7.006;2023-07-20T12:20:25;99930.47;;;23.65;36.19
14269;BME280;7218;51.480;7.006;2023-07-20T12:22:52;99926.72;;;23.10;37.02
14269;BME280;7218;51.480;7.006;2023-07-20T12:25:19;99925.38;;;22.46;37.38
14269;BME280;7218;51.480;7.006;2023-07-20T12:27:47;99921.41;;;21.91;40.18
14269;BME280;7218;51.480;7.006;2023-07-20T12:30:14;99920.50;;;21.67;40.61
14269;BME280;7218;51.480;7.006;2023-07-20T12:32:42;99923.56;;;22.22;40.01
14269;BME280;7218;51.480;7.006;2023-07-20T12:35:09;99916.56;;;22.21;40.62
14269;BME280;7218;51.480;7.006;2023-07-20T12:37:36;99923.88;;;22.42;39.18
14269;BME280;7218;51.480;7.006;2023-07-20T12:40:04;99921.56;;;22.37;38.75
14269;BME280;7218;51.480;7.006;2023-07-20T12:42:36;99917.22;;;22.60;37.82
14269;BME280;7218;51.480;7.006;2023-07-20T12:45:03;99908.69;;;22.91;38.33
14269;BME280;7218;51.480;7.006;2023-07-20T12:47:29;99922.34;;;21.90;37.97
14269;BME280;7218;51.480;7.006;2023-07-20T12:49:57;99917.59;;;21.82;39.79
14269;BME280;7218;51.480;7.006;2023-07-20T12:52:24;99909.47;;;21.35;39.98
14269;BME280;7218;51.480;7.006;2023-07-20T12:54:50;99914.38;;;20.76;40.05
14269;BME280;7218;51.480;7.006;2023-07-20T12:57:17;99912.75;;;20.61;41.70
14269;BME280;7218;51.480;7.006;2023-07-20T12:59:44;99919.41;;;20.27;40.52
14269;BME280;7218;51.480;7.006;2023-07-20T13:02:10;99916.72;;;20.41;41.16
14269;BME280;7218;51.480;7.006;2023-07-20T13:04:37;99910.56;;;20.80;43.05
14269;BME280;7218;51.480;7.006;2023-07-20T13:07:09;99910.19;;;21.62;41.18
14269;BME280;7218;51.480;7.006;2023-07-20T13:09:35;99904.69;;;23.54;35.56
14269;BME280;7218;51.480;7.006;2023-07-20T13:12:02;99898.19;;;24.87;34.35